createdAt,value
2023-02-22T00:00:06.306Z,0
2023-02-22T00:01:06.285Z,0
2023-02-22T00:02:06.399Z,0
2023-02-22T00:03:06.164Z,0
2023-02-22T00:04:05.929Z,0
2023-02-22T00:05:06.138Z,0
2023-02-22T00:06:06.140Z,0
2023-02-22T00:07:06.082Z,0
2023-02-22T00:08:06.052Z,0
2023-02-22T00:09:06.071Z,0
2023-02-22T00:10:05.997Z,0
2023-02-22T00:11:05.951Z,0
2023-02-22T00:12:05.952Z,0
2023-02-22T00:13:05.915Z,0
2023-02-22T00:14:05.918Z,0
2023-02-22T00:15:05.840Z,0
2023-02-22T00:16:06.002Z,0
2023-02-22T00:17:05.750Z,0
2023-02-22T00:18:05.747Z,0
2023-02-22T00:19:05.701Z,0
2023-02-22T00:20:05.663Z,0
2023-02-22T00:21:05.784Z,0
2023-02-22T00:22:05.400Z,0
2023-02-22T00:23:05.560Z,0
2023-02-22T00:24:05.529Z,0
2023-02-22T00:25:05.564Z,0
2023-02-22T00:26:05.488Z,0
2023-02-22T00:27:05.471Z,0
2023-02-22T00:28:05.423Z,0
2023-02-22T00:29:05.405Z,0
2023-02-22T00:30:05.364Z,0
2023-02-22T00:31:05.306Z,0
2023-02-22T00:32:05.789Z,0
2023-02-22T00:33:05.260Z,0
2023-02-22T00:34:05.215Z,0
2023-02-22T00:35:05.175Z,0
2023-02-22T00:36:05.162Z,0
2023-02-22T00:37:05.116Z,0
2023-02-22T00:38:05.101Z,0
2023-02-22T00:39:05.077Z,0
2023-02-22T00:40:04.773Z,0
2023-02-22T00:41:05.059Z,0
2023-02-22T00:42:05.372Z,0
2023-02-22T00:43:04.962Z,0
2023-02-22T00:44:04.928Z,0
2023-02-22T00:45:04.887Z,0
2023-02-22T00:46:05.141Z,0
2023-02-22T00:47:04.603Z,0
2023-02-22T00:48:04.774Z,0
2023-02-22T00:49:04.753Z,0
2023-02-22T00:50:04.708Z,0
2023-02-22T00:51:04.685Z,0
2023-02-22T00:52:04.665Z,0
2023-02-22T00:53:04.615Z,0
2023-02-22T00:54:04.652Z,0
2023-02-22T00:55:04.557Z,0
2023-02-22T00:56:04.526Z,0
2023-02-22T00:57:04.555Z,0
2023-02-22T00:58:04.540Z,0
2023-02-22T00:59:04.440Z,0
2023-02-22T01:00:04.404Z,0
2023-02-22T01:01:04.544Z,0
2023-02-22T01:02:04.870Z,0
2023-02-22T01:03:04.676Z,0
2023-02-22T01:04:04.552Z,0
2023-02-22T01:05:04.064Z,0
2023-02-22T01:06:04.211Z,0
2023-02-22T01:07:04.180Z,0
2023-02-22T01:08:04.180Z,0
2023-02-22T01:09:04.123Z,0
2023-02-22T01:10:04.080Z,0
2023-02-22T01:11:04.177Z,0
2023-02-22T01:12:04.003Z,0
2023-02-22T01:13:04.079Z,0
2023-02-22T01:14:03.954Z,0
2023-02-22T01:15:03.944Z,0
2023-02-22T01:16:03.958Z,0
2023-02-22T01:17:03.939Z,0
2023-02-22T01:18:03.823Z,0
2023-02-22T01:19:03.812Z,0
2023-02-22T01:20:03.767Z,0
2023-02-22T01:21:03.722Z,0
2023-02-22T01:22:03.736Z,0
2023-02-22T01:23:03.779Z,0
2023-02-22T01:24:03.632Z,0
2023-02-22T01:25:03.607Z,0
2023-02-22T01:26:03.579Z,0
2023-02-22T01:27:03.299Z,0
2023-02-22T01:28:03.316Z,0
2023-02-22T01:29:03.515Z,0
2023-02-22T01:30:03.448Z,0
2023-02-22T01:31:04.301Z,0
2023-02-22T01:32:03.614Z,0
2023-02-22T01:33:03.399Z,0
2023-02-22T01:34:03.312Z,0
2023-02-22T01:35:03.298Z,0
2023-02-22T01:36:03.260Z,0
2023-02-22T01:37:03.227Z,0
2023-02-22T01:38:03.220Z,0
2023-02-22T01:39:03.158Z,0
2023-02-22T01:40:03.129Z,0
2023-02-22T01:41:03.090Z,0
2023-02-22T01:42:03.062Z,0
2023-02-22T01:43:03.069Z,0
2023-02-22T01:44:02.977Z,0
2023-02-22T01:45:03.018Z,0
2023-02-22T01:46:03.342Z,0
2023-02-22T01:47:02.910Z,0
2023-02-22T01:48:02.933Z,0
2023-02-22T01:49:02.868Z,0
2023-02-22T01:50:02.795Z,0
2023-02-22T01:51:02.794Z,0
2023-02-22T01:52:02.734Z,0
2023-02-22T01:53:02.706Z,0
2023-02-22T01:54:02.720Z,0
2023-02-22T01:55:02.663Z,0
2023-02-22T01:56:02.615Z,0
2023-02-22T01:57:02.584Z,0
2023-02-22T01:58:02.551Z,0
2023-02-22T01:59:02.516Z,0
2023-02-22T02:00:02.587Z,0
2023-02-22T02:01:02.511Z,0
2023-02-22T02:02:02.447Z,0
2023-02-22T02:03:02.394Z,0
2023-02-22T02:04:02.637Z,0
2023-02-22T02:05:02.613Z,0
2023-02-22T02:06:02.289Z,0
2023-02-22T02:07:02.250Z,0
2023-02-22T02:08:02.456Z,0
2023-02-22T02:09:02.194Z,0
2023-02-22T02:10:02.169Z,0
2023-02-22T02:11:02.157Z,0
2023-02-22T02:12:02.099Z,0
2023-02-22T02:13:02.073Z,0
2023-02-22T02:14:02.035Z,0
2023-02-22T02:15:02.015Z,0
2023-02-22T02:16:01.977Z,0
2023-02-22T02:17:02.312Z,0
2023-02-22T02:18:01.898Z,0
2023-02-22T02:19:01.894Z,0
2023-02-22T02:20:01.929Z,0
2023-02-22T02:21:01.836Z,0
2023-02-22T02:22:01.787Z,0
2023-02-22T02:23:01.507Z,0
2023-02-22T02:24:01.725Z,0
2023-02-22T02:25:01.681Z,0
2023-02-22T02:26:01.657Z,0
2023-02-22T02:27:01.629Z,0
2023-02-22T02:28:01.697Z,0
2023-02-22T02:29:01.556Z,0
2023-02-22T02:30:01.516Z,0
2023-02-22T02:31:01.255Z,0
2023-02-22T02:32:02.030Z,0
2023-02-22T02:33:01.481Z,0
2023-02-22T02:34:01.397Z,0
2023-02-22T02:35:01.357Z,0
2023-02-22T02:36:01.357Z,0
2023-02-22T02:37:01.332Z,0
2023-02-22T02:38:01.297Z,0
2023-02-22T02:39:01.435Z,0
2023-02-22T02:40:01.343Z,0
2023-02-22T02:41:01.181Z,0
2023-02-22T02:42:01.144Z,0
2023-02-22T02:43:01.109Z,0
2023-02-22T02:44:01.065Z,0
2023-02-22T02:45:01.050Z,0
2023-02-22T02:46:01.023Z,0
2023-02-22T02:47:01.180Z,0
2023-02-22T02:48:00.975Z,0
2023-02-22T02:49:01.088Z,0
2023-02-22T02:50:00.896Z,0
2023-02-22T02:51:00.875Z,0
2023-02-22T02:52:00.870Z,0
2023-02-22T02:53:00.804Z,0
2023-02-22T02:54:00.788Z,0
2023-02-22T02:55:00.798Z,0
2023-02-22T02:56:00.745Z,0
2023-02-22T02:57:00.692Z,0
2023-02-22T02:58:00.641Z,0
2023-02-22T02:59:00.595Z,0
2023-02-22T03:00:00.581Z,0
2023-02-22T03:01:00.681Z,0
2023-02-22T03:02:00.759Z,0
2023-02-22T03:03:00.491Z,0
2023-02-22T03:04:00.472Z,0
2023-02-22T03:05:00.463Z,0
2023-02-22T03:06:00.376Z,0
2023-02-22T03:07:00.393Z,0
2023-02-22T03:08:00.344Z,0
2023-02-22T03:09:00.292Z,0
2023-02-22T03:10:00.247Z,0
2023-02-22T03:10:59.994Z,0
2023-02-22T03:12:00.203Z,0
2023-02-22T03:13:00.143Z,0
2023-02-22T03:14:00.212Z,0
2023-02-22T03:15:00.128Z,0
2023-02-22T03:16:00.131Z,0
2023-02-22T03:17:00.037Z,0
2023-02-22T03:17:59.992Z,0
2023-02-22T03:18:59.977Z,0
2023-02-22T03:19:59.940Z,0
2023-02-22T03:21:00.043Z,0
2023-02-22T03:21:59.870Z,0
2023-02-22T03:22:59.822Z,0
2023-02-22T03:23:59.823Z,0
2023-02-22T03:24:59.784Z,0
2023-02-22T03:25:59.732Z,0
2023-02-22T03:26:59.706Z,0
2023-02-22T03:27:59.670Z,0
2023-02-22T03:28:59.648Z,0
2023-02-22T03:29:59.625Z,0
2023-02-22T03:30:59.716Z,0
2023-02-22T03:31:59.689Z,0
2023-02-22T03:32:59.502Z,0
2023-02-22T03:33:59.478Z,0
2023-02-22T03:34:59.464Z,0
2023-02-22T03:35:59.521Z,0
2023-02-22T03:36:59.447Z,0
2023-02-22T03:37:59.353Z,0
2023-02-22T03:38:59.327Z,0
2023-02-22T03:39:59.311Z,0
2023-02-22T03:40:59.322Z,0
2023-02-22T03:41:59.234Z,0
2023-02-22T03:42:59.183Z,0
2023-02-22T03:43:59.178Z,0
2023-02-22T03:44:59.124Z,0
2023-02-22T03:45:59.184Z,0
2023-02-22T03:46:59.128Z,0
2023-02-22T03:47:59.029Z,0
2023-02-22T03:48:59.004Z,0
2023-02-22T03:49:58.974Z,0
2023-02-22T03:50:58.931Z,0
2023-02-22T03:51:58.951Z,0
2023-02-22T03:52:58.906Z,0
2023-02-22T03:53:58.829Z,0
2023-02-22T03:54:58.896Z,0
2023-02-22T03:55:58.843Z,0
2023-02-22T03:56:58.766Z,0
2023-02-22T03:57:58.706Z,0
2023-02-22T03:58:58.719Z,0
2023-02-22T03:59:58.636Z,0
2023-02-22T04:00:58.596Z,0
2023-02-22T04:01:58.571Z,0
2023-02-22T04:02:58.780Z,0
2023-02-22T04:03:58.502Z,0
2023-02-22T04:04:58.732Z,0
2023-02-22T04:05:58.426Z,0
2023-02-22T04:06:58.396Z,0
2023-02-22T04:07:58.369Z,0
2023-02-22T04:08:58.532Z,0
2023-02-22T04:09:58.305Z,0
2023-02-22T04:10:58.277Z,0
2023-02-22T04:11:58.264Z,0
2023-02-22T04:12:58.219Z,0
2023-02-22T04:13:58.201Z,0
2023-02-22T04:14:58.189Z,0
2023-02-22T04:15:58.361Z,0
2023-02-22T04:16:58.064Z,0
2023-02-22T04:17:58.044Z,0
2023-02-22T04:18:58.017Z,0
2023-02-22T04:19:57.969Z,0
2023-02-22T04:20:57.951Z,0
2023-02-22T04:21:57.896Z,0
2023-02-22T04:22:57.868Z,0
2023-02-22T04:23:57.832Z,0
2023-02-22T04:24:57.859Z,0
2023-02-22T04:25:57.796Z,0
2023-02-22T04:26:57.751Z,0
2023-02-22T04:27:57.735Z,0
2023-02-22T04:28:57.704Z,0
2023-02-22T04:29:57.656Z,0
2023-02-22T04:30:57.808Z,0
2023-02-22T04:31:57.824Z,0
2023-02-22T04:32:57.553Z,0
2023-02-22T04:33:57.523Z,0
2023-02-22T04:34:57.474Z,0
2023-02-22T04:35:57.476Z,0
2023-02-22T04:36:57.415Z,0
2023-02-22T04:37:57.380Z,0
2023-02-22T04:38:57.371Z,0
2023-02-22T04:39:57.327Z,0
2023-02-22T04:40:57.379Z,0
2023-02-22T04:41:57.235Z,0
2023-02-22T04:42:57.213Z,0
2023-02-22T04:43:57.205Z,0
2023-02-22T04:44:57.183Z,0
2023-02-22T04:45:57.113Z,0
2023-02-22T04:46:57.091Z,0
2023-02-22T04:47:57.062Z,0
2023-02-22T04:48:57.016Z,0
2023-02-22T04:49:56.977Z,0
2023-02-22T04:50:56.983Z,0
2023-02-22T04:51:56.903Z,0
2023-02-22T04:52:56.872Z,0
2023-02-22T04:53:56.856Z,0
2023-02-22T04:54:56.861Z,0
2023-02-22T04:55:56.784Z,0
2023-02-22T04:56:56.788Z,0
2023-02-22T04:57:56.716Z,0
2023-02-22T04:58:56.451Z,0
2023-02-22T04:59:56.670Z,0
2023-02-22T05:00:56.653Z,0
2023-02-22T05:01:56.593Z,0
2023-02-22T05:02:56.778Z,0
2023-02-22T05:03:56.511Z,0
2023-02-22T05:04:56.826Z,0
2023-02-22T05:05:56.457Z,0
2023-02-22T05:06:59.374Z,0
2023-02-22T05:07:56.438Z,0
2023-02-22T05:08:56.333Z,0
2023-02-22T05:09:56.320Z,0
2023-02-22T05:10:56.276Z,0
2023-02-22T05:11:56.257Z,0
2023-02-22T05:12:56.262Z,0
2023-02-22T05:13:56.198Z,0
2023-02-22T05:14:56.223Z,0
2023-02-22T05:15:56.272Z,0
2023-02-22T05:16:56.104Z,0
2023-02-22T05:17:56.053Z,0
2023-02-22T05:18:56.034Z,0
2023-02-22T05:19:56.025Z,0
2023-02-22T05:20:56.103Z,0
2023-02-22T05:21:55.962Z,0
2023-02-22T05:22:55.936Z,0
2023-02-22T05:23:55.840Z,0
2023-02-22T05:24:55.836Z,0
2023-02-22T05:25:55.769Z,0
2023-02-22T05:26:55.793Z,0
2023-02-22T05:27:55.715Z,0
2023-02-22T05:28:55.722Z,0
2023-02-22T05:29:55.654Z,0
2023-02-22T05:30:55.675Z,0
2023-02-22T05:31:56.006Z,0
2023-02-22T05:32:55.666Z,0
2023-02-22T05:33:55.558Z,0
2023-02-22T05:34:55.470Z,0
2023-02-22T05:35:55.428Z,0
2023-02-22T05:36:55.395Z,0
2023-02-22T05:37:55.413Z,0
2023-02-22T05:38:55.361Z,0
2023-02-22T05:39:55.294Z,0
2023-02-22T05:40:55.272Z,0
2023-02-22T05:41:55.243Z,0
2023-02-22T05:42:56.263Z,0
2023-02-22T05:43:55.170Z,0
2023-02-22T05:44:55.204Z,0
2023-02-22T05:45:55.096Z,0
2023-02-22T05:46:55.257Z,0
2023-02-22T05:47:55.075Z,0
2023-02-22T05:48:55.023Z,0
2023-02-22T05:49:54.969Z,0
2023-02-22T05:50:54.979Z,0
2023-02-22T05:51:54.902Z,0
2023-02-22T05:52:54.865Z,0
2023-02-22T05:53:54.598Z,0
2023-02-22T05:54:54.870Z,0
2023-02-22T05:55:54.764Z,0
2023-02-22T05:56:54.731Z,4
2023-02-22T05:57:54.697Z,4
2023-02-22T05:58:54.666Z,4
2023-02-22T05:59:54.630Z,0
2023-02-22T06:00:54.644Z,0
2023-02-22T06:01:54.752Z,4
2023-02-22T06:02:54.518Z,0
2023-02-22T06:03:54.301Z,4
2023-02-22T06:04:54.493Z,4
2023-02-22T06:05:54.719Z,4
2023-02-22T06:06:54.395Z,4
2023-02-22T06:07:54.374Z,8
2023-02-22T06:08:54.359Z,8
2023-02-22T06:09:54.307Z,8
2023-02-22T06:10:54.270Z,16
2023-02-22T06:11:56.767Z,16
2023-02-22T06:12:54.235Z,16
2023-02-22T06:13:53.725Z,20
2023-02-22T06:14:54.179Z,28
2023-02-22T06:15:54.102Z,32
2023-02-22T06:16:54.104Z,36
2023-02-22T06:17:54.048Z,44
2023-02-22T06:18:53.998Z,52
2023-02-22T06:19:53.991Z,60
2023-02-22T06:20:53.965Z,68
2023-02-22T06:21:53.904Z,76
2023-02-22T06:22:53.647Z,84
2023-02-22T06:23:53.821Z,92
2023-02-22T06:24:55.823Z,104
2023-02-22T06:25:53.869Z,120
2023-02-22T06:26:53.752Z,124
2023-02-22T06:27:53.809Z,136
2023-02-22T06:28:53.714Z,148
2023-02-22T06:29:53.695Z,164
2023-02-22T06:30:53.793Z,180
2023-02-22T06:31:54.288Z,196
2023-02-22T06:32:53.602Z,220
2023-02-22T06:33:53.619Z,240
2023-02-22T06:34:53.470Z,264
2023-02-22T06:35:53.449Z,292
2023-02-22T06:36:53.421Z,324
2023-02-22T06:37:53.163Z,352
2023-02-22T06:38:53.324Z,388
2023-02-22T06:39:53.321Z,424
2023-02-22T06:40:53.251Z,464
2023-02-22T06:41:53.281Z,496
2023-02-22T06:42:53.197Z,532
2023-02-22T06:43:53.171Z,576
2023-02-22T06:44:54.490Z,612
2023-02-22T06:45:53.387Z,648
2023-02-22T06:46:53.061Z,692
2023-02-22T06:47:53.026Z,740
2023-02-22T06:48:53.077Z,788
2023-02-22T06:49:52.944Z,832
2023-02-22T06:50:52.949Z,868
2023-02-22T06:51:52.944Z,920
2023-02-22T06:52:52.972Z,980
2023-02-22T06:53:52.825Z,1016
2023-02-22T06:54:52.896Z,1084
2023-02-22T06:55:52.954Z,1156
2023-02-22T06:56:52.724Z,1220
2023-02-22T06:57:52.693Z,1284
2023-02-22T06:58:52.696Z,1376
2023-02-22T06:59:52.623Z,1492
2023-02-22T07:00:52.877Z,1516
2023-02-22T07:01:52.573Z,1564
2023-02-22T07:02:52.586Z,1644
2023-02-22T07:03:52.544Z,1680
2023-02-22T07:04:52.512Z,1720
2023-02-22T07:05:52.411Z,1752
2023-02-22T07:06:52.401Z,1788
2023-02-22T07:07:52.383Z,1824
2023-02-22T07:08:52.336Z,1884
2023-02-22T07:09:52.750Z,1936
2023-02-22T07:10:52.268Z,1988
2023-02-22T07:11:51.967Z,2036
2023-02-22T07:12:52.196Z,2092
2023-02-22T07:13:52.279Z,2136
2023-02-22T07:14:52.117Z,2192
2023-02-22T07:15:52.072Z,2240
2023-02-22T07:16:52.058Z,2308
2023-02-22T07:17:52.068Z,2348
2023-02-22T07:18:51.978Z,2396
2023-02-22T07:19:51.958Z,2472
2023-02-22T07:20:51.965Z,2568
2023-02-22T07:21:52.224Z,2660
2023-02-22T07:22:51.621Z,2752
2023-02-22T07:23:51.838Z,2828
2023-02-22T07:24:51.821Z,2924
2023-02-22T07:25:51.818Z,3012
2023-02-22T07:26:51.750Z,3084
2023-02-22T07:27:51.706Z,3108
2023-02-22T07:28:51.692Z,3152
2023-02-22T07:29:51.386Z,3184
2023-02-22T07:30:51.769Z,3316
2023-02-22T07:31:51.653Z,3436
2023-02-22T07:32:52.111Z,3428
2023-02-22T07:33:51.530Z,3492
2023-02-22T07:34:51.479Z,3536
2023-02-22T07:35:51.512Z,3652
2023-02-22T07:36:51.545Z,3720
2023-02-22T07:37:50.868Z,3856
2023-02-22T07:38:51.331Z,3996
2023-02-22T07:39:51.312Z,4148
2023-02-22T07:40:51.121Z,4260
2023-02-22T07:41:51.215Z,4344
2023-02-22T07:42:51.196Z,4504
2023-02-22T07:43:51.163Z,4604
2023-02-22T07:44:50.949Z,4708
2023-02-22T07:45:51.650Z,4780
2023-02-22T07:46:51.063Z,4900
2023-02-22T07:47:51.029Z,5180
2023-02-22T07:48:51.025Z,5332
2023-02-22T07:49:50.950Z,5356
2023-02-22T07:50:50.940Z,5524
2023-02-22T07:51:50.886Z,5772
2023-02-22T07:52:50.909Z,5780
2023-02-22T07:53:50.837Z,5808
2023-02-22T07:54:50.782Z,5868
2023-02-22T07:55:50.845Z,5940
2023-02-22T07:56:50.791Z,5932
2023-02-22T07:57:50.697Z,5872
2023-02-22T07:58:50.660Z,5952
2023-02-22T07:59:50.618Z,6020
2023-02-22T08:00:50.360Z,6200
2023-02-22T08:01:50.584Z,6304
2023-02-22T08:02:50.755Z,6428
2023-02-22T08:03:50.484Z,6368
2023-02-22T08:04:50.468Z,6768
2023-02-22T08:05:50.481Z,6664
2023-02-22T08:06:50.174Z,6804
2023-02-22T08:07:50.147Z,6680
2023-02-22T08:08:50.159Z,6656
2023-02-22T08:09:50.296Z,6696
2023-02-22T08:10:50.269Z,6840
2023-02-22T08:11:50.304Z,6912
2023-02-22T08:12:50.303Z,7164
2023-02-22T08:13:50.185Z,7128
2023-02-22T08:14:49.668Z,7096
2023-02-22T08:15:50.481Z,7104
2023-02-22T08:16:50.285Z,7120
2023-02-22T08:17:50.042Z,7108
2023-02-22T08:18:49.517Z,7056
2023-02-22T08:19:50.034Z,7032
2023-02-22T08:20:49.985Z,7144
2023-02-22T08:21:49.668Z,7244
2023-02-22T08:22:49.627Z,7380
2023-02-22T08:23:49.847Z,7440
2023-02-22T08:24:49.933Z,7440
2023-02-22T08:25:49.798Z,7544
2023-02-22T08:26:49.735Z,7700
2023-02-22T08:27:49.775Z,7836
2023-02-22T08:28:49.698Z,7980
2023-02-22T08:29:49.785Z,8036
2023-02-22T08:30:49.488Z,8072
2023-02-22T08:31:50.272Z,8192
2023-02-22T08:32:50.137Z,8260
2023-02-22T08:33:50.729Z,8360
2023-02-22T08:34:49.561Z,8480
2023-02-22T08:35:49.587Z,8584
2023-02-22T08:36:49.415Z,8676
2023-02-22T08:37:49.766Z,8764
2023-02-22T08:38:49.586Z,8844
2023-02-22T08:39:49.222Z,8932
2023-02-22T08:40:50.083Z,8992
2023-02-22T08:41:49.317Z,9072
2023-02-22T08:42:49.245Z,9144
2023-02-22T08:43:50.433Z,9212
2023-02-22T08:44:49.186Z,9284
2023-02-22T08:45:49.488Z,9368
2023-02-22T08:46:49.103Z,9464
2023-02-22T08:47:49.078Z,9576
2023-02-22T08:48:49.035Z,9704
2023-02-22T08:49:48.760Z,9824
2023-02-22T08:50:49.350Z,9928
2023-02-22T08:51:48.935Z,10024
2023-02-22T08:52:48.920Z,10104
2023-02-22T08:53:48.859Z,10128
2023-02-22T08:54:48.857Z,10160
2023-02-22T08:55:48.637Z,10176
2023-02-22T08:56:48.833Z,10176
2023-02-22T08:57:48.746Z,10160
2023-02-22T08:58:48.722Z,10160
2023-02-22T08:59:48.720Z,10132
2023-02-22T09:00:48.676Z,10092
2023-02-22T09:01:48.935Z,10072
2023-02-22T09:02:48.626Z,10004
2023-02-22T09:03:48.752Z,9940
2023-02-22T09:04:48.534Z,9940
2023-02-22T09:05:48.790Z,9924
2023-02-22T09:06:48.343Z,9876
2023-02-22T09:07:48.435Z,9828
2023-02-22T09:08:48.436Z,9756
2023-02-22T09:09:48.449Z,9696
2023-02-22T09:10:48.370Z,9656
2023-02-22T09:11:48.087Z,9496
2023-02-22T09:12:48.815Z,9472
2023-02-22T09:13:48.261Z,9484
2023-02-22T09:14:48.676Z,9516
2023-02-22T09:15:47.987Z,9556
2023-02-22T09:16:48.387Z,9616
2023-02-22T09:17:48.177Z,9672
2023-02-22T09:18:51.686Z,9696
2023-02-22T09:19:48.084Z,9708
2023-02-22T09:20:48.104Z,9684
2023-02-22T09:21:47.834Z,9612
2023-02-22T09:22:47.744Z,9624
2023-02-22T09:23:47.945Z,9652
2023-02-22T09:24:47.932Z,9720
2023-02-22T09:25:48.032Z,9748
2023-02-22T09:26:47.873Z,9720
2023-02-22T09:27:47.940Z,9748
2023-02-22T09:28:47.935Z,9796
2023-02-22T09:29:47.998Z,9760
2023-02-22T09:30:47.969Z,9788
2023-02-22T09:31:48.368Z,9792
2023-02-22T09:32:48.422Z,9780
2023-02-22T09:33:49.830Z,9788
2023-02-22T09:34:47.658Z,9748
2023-02-22T09:35:47.715Z,9800
2023-02-22T09:36:47.568Z,9856
2023-02-22T09:37:47.563Z,9916
2023-02-22T09:38:47.498Z,9940
2023-02-22T09:39:47.657Z,9928
2023-02-22T09:40:47.772Z,9988
2023-02-22T09:41:47.402Z,10004
2023-02-22T09:42:47.137Z,9960
2023-02-22T09:43:47.180Z,9984
2023-02-22T09:44:47.363Z,10024
2023-02-22T09:45:47.664Z,10108
2023-02-22T09:46:47.253Z,10160
2023-02-22T09:47:47.423Z,10196
2023-02-22T09:48:47.267Z,10128
2023-02-22T09:49:47.224Z,10144
2023-02-22T09:50:47.133Z,10176
2023-02-22T09:51:47.121Z,10260
2023-02-22T09:52:47.085Z,10256
2023-02-22T09:53:47.044Z,10264
2023-02-22T09:54:47.046Z,10212
2023-02-22T09:55:46.995Z,10156
2023-02-22T09:56:46.985Z,10100
2023-02-22T09:57:46.946Z,10064
2023-02-22T09:58:48.706Z,10020
2023-02-22T09:59:46.891Z,9944
2023-02-22T10:00:46.920Z,9920
2023-02-22T10:01:46.605Z,9932
2023-02-22T10:02:46.828Z,9932
2023-02-22T10:03:47.051Z,9928
2023-02-22T10:04:46.861Z,9940
2023-02-22T10:05:47.118Z,9964
2023-02-22T10:06:46.720Z,9996
2023-02-22T10:07:46.680Z,10052
2023-02-22T10:08:46.659Z,10084
2023-02-22T10:09:46.597Z,10220
2023-02-22T10:10:46.572Z,10336
2023-02-22T10:11:46.579Z,10436
2023-02-22T10:12:46.535Z,10512
2023-02-22T10:13:46.501Z,10592
2023-02-22T10:14:48.636Z,10668
2023-02-22T10:15:46.447Z,10732
2023-02-22T10:16:46.644Z,10752
2023-02-22T10:17:46.140Z,10752
2023-02-22T10:18:46.355Z,10760
2023-02-22T10:19:46.112Z,10760
2023-02-22T10:20:46.314Z,10828
2023-02-22T10:21:46.265Z,10884
2023-02-22T10:22:46.235Z,10932
2023-02-22T10:23:46.193Z,10964
2023-02-22T10:24:46.174Z,10992
2023-02-22T10:25:45.920Z,11024
2023-02-22T10:26:46.159Z,10980
2023-02-22T10:27:46.090Z,10920
2023-02-22T10:28:46.092Z,10880
2023-02-22T10:29:45.817Z,10868
2023-02-22T10:30:45.915Z,10856
2023-02-22T10:31:46.497Z,10852
2023-02-22T10:32:46.112Z,10860
2023-02-22T10:33:45.988Z,10832
2023-02-22T10:34:45.905Z,10804
2023-02-22T10:35:49.204Z,10816
2023-02-22T10:36:45.882Z,10844
2023-02-22T10:37:45.962Z,10864
2023-02-22T10:38:45.901Z,10904
2023-02-22T10:39:45.934Z,6796
2023-02-22T10:40:45.519Z,7076
2023-02-22T10:41:45.496Z,6888
2023-02-22T10:42:45.695Z,11212
2023-02-22T10:43:45.666Z,11224
2023-02-22T10:44:45.419Z,11304
2023-02-22T10:45:45.844Z,11380
2023-02-22T10:46:45.578Z,11464
2023-02-22T10:47:45.585Z,11568
2023-02-22T10:48:45.348Z,11676
2023-02-22T10:49:45.517Z,11800
2023-02-22T10:50:45.541Z,11920
2023-02-22T10:51:45.508Z,12020
2023-02-22T10:52:45.636Z,12128
2023-02-22T10:53:45.422Z,12236
2023-02-22T10:54:45.386Z,12352
2023-02-22T10:55:45.634Z,12460
2023-02-22T10:56:45.368Z,12564
2023-02-22T10:57:44.818Z,12652
2023-02-22T10:58:45.290Z,12752
2023-02-22T10:59:45.332Z,12840
2023-02-22T11:00:46.649Z,12932
2023-02-22T11:01:45.489Z,13020
2023-02-22T11:02:45.163Z,13120
2023-02-22T11:03:45.161Z,13208
2023-02-22T11:04:45.318Z,13312
2023-02-22T11:05:45.106Z,13408
2023-02-22T11:06:45.015Z,13504
2023-02-22T11:07:45.113Z,13600
2023-02-22T11:08:45.051Z,13716
2023-02-22T11:09:45.003Z,13788
2023-02-22T11:10:44.983Z,13904
2023-02-22T11:11:44.960Z,13980
2023-02-22T11:12:44.730Z,14048
2023-02-22T11:13:44.935Z,14092
2023-02-22T11:14:44.872Z,14124
2023-02-22T11:15:45.168Z,14132
2023-02-22T11:16:45.272Z,14120
2023-02-22T11:17:44.795Z,14084
2023-02-22T11:18:44.543Z,14040
2023-02-22T11:19:44.504Z,13996
2023-02-22T11:20:44.792Z,13960
2023-02-22T11:21:44.695Z,13948
2023-02-22T11:22:44.440Z,13980
2023-02-22T11:23:47.103Z,13992
2023-02-22T11:24:57.526Z,14032
2023-02-22T11:25:44.628Z,14048
2023-02-22T11:26:44.589Z,14056
2023-02-22T11:27:44.565Z,14028
2023-02-22T11:28:44.553Z,13992
2023-02-22T11:29:44.602Z,13972
2023-02-22T11:30:45.423Z,13960
2023-02-22T11:31:44.840Z,13984
2023-02-22T11:32:44.422Z,13968
2023-02-22T11:33:44.415Z,13980
2023-02-22T11:34:44.570Z,13944
2023-02-22T11:35:44.374Z,13904
2023-02-22T11:36:44.460Z,13856
2023-02-22T11:37:44.123Z,13800
2023-02-22T11:38:44.031Z,13764
2023-02-22T11:39:44.570Z,13724
2023-02-22T11:40:44.678Z,13680
2023-02-22T11:41:44.398Z,13612
2023-02-22T11:42:44.202Z,13560
2023-02-22T11:43:44.329Z,13572
2023-02-22T11:44:44.152Z,13560
2023-02-22T11:46:04.540Z,13492
2023-02-22T11:46:44.381Z,13484
2023-02-22T11:47:44.077Z,13412
2023-02-22T11:48:44.149Z,13388
2023-02-22T11:49:43.793Z,13372
2023-02-22T11:50:43.546Z,13320
2023-02-22T11:51:44.029Z,13264
2023-02-22T11:52:43.783Z,13184
2023-02-22T11:53:43.958Z,13112
2023-02-22T11:54:43.926Z,13032
2023-02-22T11:55:50.242Z,12928
2023-02-22T11:56:46.635Z,12836
2023-02-22T11:57:43.855Z,12764
2023-02-22T11:58:43.866Z,12712
2023-02-22T11:59:43.826Z,12648
2023-02-22T12:00:43.799Z,12616
2023-02-22T12:01:43.754Z,12612
2023-02-22T12:02:59.515Z,12524
2023-02-22T12:03:44.181Z,12448
2023-02-22T12:04:44.395Z,12480
2023-02-22T12:05:43.660Z,12460
2023-02-22T12:06:43.638Z,12440
2023-02-22T12:07:43.678Z,12400
2023-02-22T12:08:43.413Z,12404
2023-02-22T12:09:43.387Z,12420
2023-02-22T12:10:43.555Z,12400
2023-02-22T12:11:43.566Z,12340
2023-02-22T12:12:43.600Z,12276
2023-02-22T12:13:43.471Z,12268
2023-02-22T12:14:43.222Z,12136
2023-02-22T12:15:43.674Z,12032
2023-02-22T12:16:43.196Z,12024
2023-02-22T12:17:59.954Z,11924
2023-02-22T12:18:43.139Z,11836
2023-02-22T12:19:43.148Z,11744
2023-02-22T12:20:43.105Z,11748
2023-02-22T12:21:43.308Z,11704
2023-02-22T12:22:43.264Z,11692
2023-02-22T12:23:43.200Z,11664
2023-02-22T12:24:43.429Z,11632
2023-02-22T12:25:43.221Z,11672
2023-02-22T12:26:43.202Z,11680
2023-02-22T12:27:43.187Z,11720
2023-02-22T12:28:43.681Z,11732
2023-02-22T12:29:43.111Z,11708
2023-02-22T12:30:43.302Z,11812
2023-02-22T12:31:43.548Z,11848
2023-02-22T12:32:43.266Z,11900
2023-02-22T12:33:42.960Z,11932
2023-02-22T12:34:43.078Z,12008
2023-02-22T12:35:42.968Z,12064
2023-02-22T12:36:42.759Z,12072
2023-02-22T12:37:42.931Z,12072
2023-02-22T12:38:42.456Z,12136
2023-02-22T12:39:58.898Z,12164
2023-02-22T12:40:42.877Z,12124
2023-02-22T12:41:42.849Z,12064
2023-02-22T12:42:42.843Z,12004
2023-02-22T12:43:42.611Z,11904
2023-02-22T12:44:42.561Z,11776
2023-02-22T12:45:42.770Z,11724
2023-02-22T12:46:43.194Z,11632
2023-02-22T12:47:42.713Z,11596
2023-02-22T12:48:42.695Z,11552
2023-02-22T12:49:42.770Z,11528
2023-02-22T12:50:42.430Z,11472
2023-02-22T12:51:42.673Z,11460
2023-02-22T12:52:42.132Z,11372
2023-02-22T12:53:42.590Z,11284
2023-02-22T12:54:42.380Z,11232
2023-02-22T12:55:42.571Z,11092
2023-02-22T12:56:42.514Z,11036
2023-02-22T12:57:42.496Z,10960
2023-02-22T12:58:42.463Z,10832
2023-02-22T12:59:42.551Z,10740
2023-02-22T13:00:42.509Z,10644
2023-02-22T13:01:42.656Z,10560
2023-02-22T13:02:42.369Z,10508
2023-02-22T13:03:42.347Z,10512
2023-02-22T13:04:42.313Z,10512
2023-02-22T13:05:42.428Z,10424
2023-02-22T13:06:42.284Z,10352
2023-02-22T13:07:42.262Z,10352
2023-02-22T13:08:42.225Z,10356
2023-02-22T13:09:42.210Z,10352
2023-02-22T13:10:42.205Z,10328
2023-02-22T13:11:42.250Z,10340
2023-02-22T13:12:42.163Z,10328
2023-02-22T13:13:42.118Z,10348
2023-02-22T13:14:42.094Z,10340
2023-02-22T13:15:42.803Z,10324
2023-02-22T13:16:42.192Z,10208
2023-02-22T13:17:42.047Z,10136
2023-02-22T13:18:42.265Z,10148
2023-02-22T13:19:41.991Z,10112
2023-02-22T13:20:41.971Z,10124
2023-02-22T13:21:41.932Z,10112
2023-02-22T13:22:41.477Z,10060
2023-02-22T13:23:41.651Z,10004
2023-02-22T13:24:43.991Z,9968
2023-02-22T13:25:41.879Z,9960
2023-02-22T13:26:41.959Z,9940
2023-02-22T13:27:42.111Z,9896
2023-02-22T13:28:41.770Z,9836
2023-02-22T13:29:41.774Z,9796
2023-02-22T13:30:41.547Z,9720
2023-02-22T13:31:46.055Z,9628
2023-02-22T13:32:41.770Z,9584
2023-02-22T13:33:41.666Z,9540
2023-02-22T13:34:41.652Z,9468
2023-02-22T13:35:41.382Z,9428
2023-02-22T13:36:41.118Z,9420
2023-02-22T13:37:42.682Z,9364
2023-02-22T13:38:41.306Z,9328
2023-02-22T13:39:41.533Z,9304
2023-02-22T13:40:41.497Z,9292
2023-02-22T13:41:41.488Z,9316
2023-02-22T13:42:43.832Z,9364
2023-02-22T13:43:41.338Z,9380
2023-02-22T13:44:41.408Z,9392
2023-02-22T13:45:41.139Z,9392
2023-02-22T13:46:41.646Z,9396
2023-02-22T13:47:41.189Z,9408
2023-02-22T13:48:41.400Z,9444
2023-02-22T13:49:41.303Z,9484